Washington Navy Yard, District of Columbia
Current Conditions -  °F | °C
As of 3:52 PM on Sunday 21 Dec 2014 (Local Time) from KDCA Reporting Station
Few Clouds Few Clouds  
Wind Chill: 42°   Ceiling: Unl
Heat Index: 44°   Visibility: 10mi
Dew Point: 24°   Wind: 5mph
Humidity: 45%   Direction: 360°N
Pressure: 30.29"   Gusts: NA
Location:  38.9163°N, 76.9946°W
Report Text: KDCA 212052Z 36004KT 10SM FEW250 07/M04 A3029 RMK AO2 SLP257 T00671044 56015
Loading
Personal Weather Stations






























Interactive Weather Map New forecast layout! Learn more

10-Day Weather Forecast

Advertisements
Track Severe Weather on mobile